createdAt,value
2022-11-27T00:00:59.235Z,4.13
2022-11-27T00:03:29.038Z,4.23
2022-11-27T00:05:58.637Z,3.80
2022-11-27T00:08:26.841Z,4.00
2022-11-27T00:10:54.653Z,4.30
2022-11-27T00:13:22.446Z,3.80
2022-11-27T00:15:50.365Z,3.63
2022-11-27T00:18:18.246Z,3.53
2022-11-27T00:20:47.400Z,3.67
2022-11-27T00:23:15.241Z,3.20
2022-11-27T00:25:51.428Z,3.60
2022-11-27T00:28:19.734Z,3.10
2022-11-27T00:30:47.699Z,3.83
2022-11-27T00:33:15.569Z,3.83
2022-11-27T00:35:43.475Z,3.27
2022-11-27T00:38:12.680Z,3.10
2022-11-27T00:40:40.524Z,3.50
2022-11-27T00:43:08.359Z,3.83
2022-11-27T00:45:36.207Z,3.20
2022-11-27T00:48:04.068Z,3.40
2022-11-27T00:50:32.237Z,3.07
2022-11-27T00:53:00.526Z,3.27
2022-11-27T00:55:29.674Z,3.10
2022-11-27T00:57:57.460Z,2.90
2022-11-27T01:00:25.533Z,2.67
2022-11-27T01:02:53.450Z,3.07
2022-11-27T01:05:21.337Z,2.50
2022-11-27T01:07:49.724Z,3.00
2022-11-27T01:10:17.720Z,3.07
2022-11-27T01:12:49.707Z,2.77
2022-11-27T01:15:17.681Z,2.70
2022-11-27T01:17:45.515Z,2.90
2022-11-27T01:20:13.921Z,2.80
2022-11-27T01:22:41.741Z,2.67
2022-11-27T01:25:10.329Z,2.43
2022-11-27T01:27:38.114Z,2.70
2022-11-27T01:30:08.994Z,2.60
2022-11-27T01:32:36.796Z,2.70
2022-11-27T01:35:04.861Z,2.37
2022-11-27T01:37:32.652Z,2.20
2022-11-27T01:40:00.453Z,2.77
2022-11-27T01:42:28.280Z,2.20
2022-11-27T01:44:56.843Z,2.23
2022-11-27T01:47:44.613Z,2.40
2022-11-27T01:50:17.849Z,2.20
2022-11-27T01:52:51.029Z,2.20
2022-11-27T01:55:26.739Z,2.40
2022-11-27T01:57:57.313Z,2.17
2022-11-27T02:00:26.412Z,2.53
2022-11-27T02:02:55.754Z,2.07
2022-11-27T02:05:25.908Z,1.93
2022-11-27T02:07:54.440Z,2.17
2022-11-27T02:10:23.964Z,1.90
2022-11-27T02:12:57.843Z,2.40
2022-11-27T02:15:32.661Z,2.17
2022-11-27T02:18:10.938Z,2.17
2022-11-27T02:20:48.259Z,1.90
2022-11-27T02:23:46.365Z,2.00
2022-11-27T02:26:34.288Z,2.10
2022-11-27T02:29:07.173Z,1.93
2022-11-27T02:31:41.556Z,2.07
2022-11-27T02:34:18.026Z,1.70
2022-11-27T02:36:54.059Z,1.90
2022-11-27T02:39:26.572Z,1.80
2022-11-27T02:42:00.420Z,1.90
2022-11-27T02:44:32.698Z,2.17
2022-11-27T02:47:01.396Z,1.90
2022-11-27T02:49:29.772Z,2.07
2022-11-27T02:52:00.231Z,1.77
2022-11-27T02:54:31.180Z,1.83
2022-11-27T02:57:03.602Z,1.83
2022-11-27T02:59:34.529Z,2.10
2022-11-27T03:02:06.576Z,1.53
2022-11-27T03:04:40.041Z,1.60
2022-11-27T03:07:13.817Z,2.30
2022-11-27T03:09:44.810Z,1.93
2022-11-27T03:12:14.964Z,1.63
2022-11-27T03:14:44.825Z,1.50
2022-11-27T03:17:23.458Z,1.97
2022-11-27T03:19:56.580Z,1.80
2022-11-27T03:22:26.672Z,1.73
2022-11-27T03:24:54.942Z,1.73
2022-11-27T03:27:33.009Z,1.70
2022-11-27T03:30:05.306Z,1.80
2022-11-27T03:32:33.985Z,1.70
2022-11-27T03:35:02.156Z,1.87
2022-11-27T03:37:30.062Z,1.73
2022-11-27T03:39:58.050Z,1.60
2022-11-27T03:42:31.894Z,1.73
2022-11-27T03:45:08.273Z,1.73
2022-11-27T03:47:47.386Z,1.70
2022-11-27T03:50:27.937Z,1.73
2022-11-27T03:53:04.956Z,1.90
2022-11-27T03:55:42.014Z,1.77
2022-11-27T03:58:15.889Z,2.13
2022-11-27T04:00:46.442Z,1.57
2022-11-27T04:03:14.916Z,2.10
2022-11-27T04:05:42.833Z,1.73
2022-11-27T04:08:10.614Z,1.77
2022-11-27T04:10:38.444Z,1.97
2022-11-27T04:13:06.450Z,1.77
2022-11-27T04:15:34.248Z,1.97
2022-11-27T04:18:03.432Z,1.90
2022-11-27T04:20:31.229Z,1.80
2022-11-27T04:22:59.127Z,1.70
2022-11-27T04:25:27.373Z,1.77
2022-11-27T04:27:55.289Z,2.10
2022-11-27T04:30:23.599Z,1.70
2022-11-27T04:32:51.437Z,2.00
2022-11-27T04:35:20.618Z,1.93
2022-11-27T04:37:48.429Z,1.77
2022-11-27T04:40:16.430Z,1.80
2022-11-27T04:42:44.287Z,1.87
2022-11-27T04:45:12.406Z,1.83
2022-11-27T04:47:40.253Z,2.00
2022-11-27T04:50:09.986Z,2.00
2022-11-27T04:52:39.147Z,1.83
2022-11-27T04:55:08.053Z,1.67
2022-11-27T04:57:35.904Z,1.70
2022-11-27T05:00:05.397Z,2.03
2022-11-27T05:02:33.243Z,1.70
2022-11-27T05:05:01.161Z,2.03
2022-11-27T05:07:29.086Z,1.83
2022-11-27T05:09:58.288Z,1.63
2022-11-27T05:12:26.115Z,1.80
2022-11-27T05:14:53.891Z,1.80
2022-11-27T05:17:21.739Z,1.90
2022-11-27T05:19:49.542Z,1.80
2022-11-27T05:22:17.369Z,1.70
2022-11-27T05:24:45.172Z,1.67
2022-11-27T05:27:14.856Z,1.70
2022-11-27T05:29:43.602Z,1.70
2022-11-27T05:32:11.518Z,1.67
2022-11-27T05:34:39.695Z,1.73
2022-11-27T05:37:07.735Z,1.73
2022-11-27T05:39:35.636Z,1.50
2022-11-27T05:42:03.452Z,1.87
2022-11-27T05:44:32.609Z,1.80
2022-11-27T05:47:00.475Z,1.87
2022-11-27T05:49:28.337Z,2.00
2022-11-27T05:51:56.113Z,1.70
2022-11-27T05:54:24.217Z,1.70
2022-11-27T05:56:52.045Z,1.80
2022-11-27T05:59:19.994Z,1.93
2022-11-27T06:01:50.191Z,1.57
2022-11-27T06:04:18.268Z,1.50
2022-11-27T06:06:46.064Z,1.63
2022-11-27T06:09:14.363Z,1.60
2022-11-27T06:11:42.784Z,1.70
2022-11-27T06:14:11.878Z,1.77
2022-11-27T06:16:39.778Z,1.80
2022-11-27T06:19:10.070Z,1.47
2022-11-27T06:21:37.984Z,1.60
2022-11-27T06:24:05.988Z,1.60
2022-11-27T06:26:34.778Z,1.47
2022-11-27T06:29:02.738Z,1.70
2022-11-27T06:31:32.435Z,1.70
2022-11-27T06:34:00.569Z,1.43
2022-11-27T06:36:31.277Z,1.77
2022-11-27T06:38:59.410Z,1.40
2022-11-27T06:41:28.481Z,1.53
2022-11-27T06:43:58.378Z,1.60
2022-11-27T06:46:26.526Z,1.60
2022-11-27T06:48:55.613Z,1.67
2022-11-27T06:51:26.427Z,1.43
2022-11-27T06:53:56.180Z,1.43
2022-11-27T06:56:26.729Z,1.40
2022-11-27T06:58:57.408Z,1.80
2022-11-27T07:01:27.218Z,1.70
2022-11-27T07:03:55.058Z,1.57
2022-11-27T07:06:25.154Z,2.10
2022-11-27T07:08:53.858Z,2.03
2022-11-27T07:11:25.827Z,1.70
2022-11-27T07:13:55.281Z,1.83
2022-11-27T07:16:23.166Z,1.97
2022-11-27T07:18:54.506Z,1.77
2022-11-27T07:21:22.987Z,1.83
2022-11-27T07:23:50.904Z,3.10
2022-11-27T07:26:21.162Z,1.83
2022-11-27T07:28:50.949Z,2.27
2022-11-27T07:31:21.284Z,2.00
2022-11-27T07:33:49.630Z,2.20
2022-11-27T07:36:18.837Z,1.87
2022-11-27T07:38:47.292Z,1.83
2022-11-27T07:41:15.657Z,1.50
2022-11-27T07:43:44.627Z,2.13
2022-11-27T07:46:16.186Z,2.03
2022-11-27T07:48:44.038Z,2.50
2022-11-27T07:51:13.705Z,1.87
2022-11-27T07:53:42.864Z,1.90
2022-11-27T07:56:12.573Z,6.83
2022-11-27T07:58:40.436Z,4.67
2022-11-27T08:01:09.760Z,5.17
2022-11-27T08:03:39.156Z,6.13
2022-11-27T08:06:14.441Z,5.70
2022-11-27T08:08:42.271Z,4.77
2022-11-27T08:11:16.761Z,5.40
2022-11-27T08:13:44.562Z,5.53
2022-11-27T08:16:12.436Z,5.47
2022-11-27T08:18:41.708Z,5.20
2022-11-27T08:21:09.885Z,5.20
2022-11-27T08:23:37.739Z,5.27
2022-11-27T08:26:10.067Z,4.57
2022-11-27T08:28:39.641Z,4.93
2022-11-27T08:31:09.597Z,4.10
2022-11-27T08:33:37.801Z,5.10
2022-11-27T08:36:10.553Z,4.03
2022-11-27T08:38:40.458Z,4.13
2022-11-27T08:41:09.630Z,5.17
2022-11-27T08:43:37.519Z,3.97
2022-11-27T08:46:06.052Z,4.00
2022-11-27T08:48:33.908Z,3.70
2022-11-27T08:51:08.488Z,3.47
2022-11-27T08:53:37.469Z,4.33
2022-11-27T08:56:11.117Z,3.87
2022-11-27T08:58:40.876Z,4.40
2022-11-27T09:01:10.346Z,4.03
2022-11-27T09:03:38.896Z,4.03
2022-11-27T09:06:13.102Z,3.77
2022-11-27T09:08:41.651Z,3.50
2022-11-27T09:11:10.684Z,3.87
2022-11-27T09:13:40.234Z,3.20
2022-11-27T09:16:10.613Z,3.80
2022-11-27T09:18:38.652Z,3.87
2022-11-27T09:21:08.482Z,3.60
2022-11-27T09:23:38.430Z,3.20
2022-11-27T09:26:08.522Z,3.57
2022-11-27T09:28:37.176Z,3.10
2022-11-27T09:31:07.407Z,3.27
2022-11-27T09:33:38.842Z,3.37
2022-11-27T09:36:07.890Z,3.40
2022-11-27T09:38:37.136Z,3.53
2022-11-27T09:41:14.362Z,3.40
2022-11-27T09:43:45.509Z,3.17
2022-11-27T09:46:20.532Z,3.50
2022-11-27T09:48:51.391Z,3.43
2022-11-27T09:51:25.634Z,3.23
2022-11-27T09:54:01.337Z,2.97
2022-11-27T09:56:30.856Z,2.80
2022-11-27T09:59:00.390Z,2.73
2022-11-27T10:01:38.409Z,3.13
2022-11-27T10:04:11.870Z,3.10
2022-11-27T10:06:55.530Z,2.93
2022-11-27T10:09:35.237Z,3.03
2022-11-27T10:12:14.269Z,3.37
2022-11-27T10:14:57.867Z,2.63
2022-11-27T10:17:33.518Z,3.07
2022-11-27T10:20:11.045Z,3.00
2022-11-27T10:22:47.186Z,2.93
2022-11-27T10:25:20.349Z,2.60
2022-11-27T10:28:01.439Z,2.60
2022-11-27T10:30:31.895Z,2.67
2022-11-27T10:33:03.121Z,2.30
2022-11-27T10:35:33.785Z,3.10
2022-11-27T10:38:07.535Z,3.37
2022-11-27T10:40:41.098Z,2.67
2022-11-27T10:43:12.736Z,2.10
2022-11-27T10:45:46.987Z,3.00
2022-11-27T10:48:15.979Z,2.60
2022-11-27T10:50:45.764Z,2.70
2022-11-27T10:53:22.866Z,2.57
2022-11-27T10:56:06.001Z,2.50
2022-11-27T10:58:37.580Z,3.10
2022-11-27T11:01:07.835Z,2.20
2022-11-27T11:03:36.475Z,2.43
2022-11-27T11:06:23.647Z,2.27
2022-11-27T11:09:03.706Z,2.50
2022-11-27T11:11:33.246Z,2.33
2022-11-27T11:14:01.108Z,2.43
2022-11-27T11:16:34.959Z,2.43
2022-11-27T11:19:06.017Z,1.90
2022-11-27T11:21:39.122Z,2.50
2022-11-27T11:24:13.370Z,2.00
2022-11-27T11:26:49.886Z,2.47
2022-11-27T11:29:29.487Z,3.03
2022-11-27T11:31:59.326Z,3.00
2022-11-27T11:34:29.888Z,2.47
2022-11-27T11:36:58.782Z,2.40
2022-11-27T11:39:30.271Z,2.67
2022-11-27T11:42:09.216Z,3.37
2022-11-27T11:44:39.794Z,6.83
2022-11-27T11:47:16.263Z,6.73
2022-11-27T11:49:44.056Z,6.40
2022-11-27T11:52:24.216Z,11.27
2022-11-27T11:55:00.825Z,14.43
2022-11-27T11:57:53.967Z,10.90
2022-11-27T12:00:28.251Z,12.87
2022-11-27T12:03:17.403Z,17.63
2022-11-27T12:06:05.112Z,20.47
2022-11-27T12:08:43.690Z,27.67
2022-11-27T12:11:18.232Z,34.83
2022-11-27T12:14:01.880Z,35.30
2022-11-27T12:16:39.567Z,19.40
2022-11-27T12:19:26.749Z,19.30
2022-11-27T12:22:05.927Z,32.97
2022-11-27T12:24:43.966Z,33.80
2022-11-27T12:27:22.527Z,33.07
2022-11-27T12:30:14.677Z,30.83
2022-11-27T12:33:13.507Z,30.57
2022-11-27T12:35:50.499Z,31.00
2022-11-27T12:38:39.431Z,29.73
2022-11-27T12:41:31.997Z,29.30
2022-11-27T12:44:01.003Z,30.17
2022-11-27T12:46:37.766Z,28.40
2022-11-27T12:49:11.351Z,27.87
2022-11-27T12:51:43.429Z,28.00
2022-11-27T12:54:16.022Z,26.60
2022-11-27T12:56:48.347Z,26.60
2022-11-27T12:59:23.568Z,25.87
2022-11-27T13:02:02.329Z,24.87
2022-11-27T13:04:38.477Z,9.57
2022-11-27T13:07:11.427Z,7.13
2022-11-27T13:09:46.671Z,5.00
2022-11-27T13:12:23.404Z,4.30
2022-11-27T13:14:56.108Z,4.60
2022-11-27T13:17:30.709Z,4.83
2022-11-27T13:19:58.741Z,4.73
2022-11-27T13:22:32.432Z,4.93
2022-11-27T13:25:02.724Z,5.00
2022-11-27T13:27:33.722Z,4.17
2022-11-27T13:30:04.947Z,4.80
2022-11-27T13:32:42.653Z,4.57
2022-11-27T13:35:22.864Z,3.97
2022-11-27T13:38:00.840Z,4.50
2022-11-27T13:40:31.648Z,4.10
2022-11-27T13:43:05.942Z,4.50
2022-11-27T13:45:37.991Z,4.40
2022-11-27T13:48:26.095Z,4.10
2022-11-27T13:50:55.314Z,4.07
2022-11-27T13:53:32.502Z,4.03
2022-11-27T13:56:00.707Z,3.70
2022-11-27T13:58:31.625Z,3.53
2022-11-27T14:00:59.841Z,3.57
2022-11-27T14:03:30.887Z,3.10
2022-11-27T14:05:59.338Z,3.83
2022-11-27T14:08:30.927Z,3.80
2022-11-27T14:11:01.802Z,3.63
2022-11-27T14:13:39.629Z,3.87
2022-11-27T14:16:22.858Z,3.20
2022-11-27T14:18:54.291Z,3.23
2022-11-27T14:21:27.765Z,3.90
2022-11-27T14:23:55.723Z,2.90
2022-11-27T14:26:26.032Z,2.90
2022-11-27T14:28:56.429Z,3.33
2022-11-27T14:31:28.976Z,3.13
2022-11-27T14:34:16.356Z,2.80
2022-11-27T14:36:46.319Z,3.00
2022-11-27T14:39:23.397Z,2.73
2022-11-27T14:41:58.330Z,2.87
2022-11-27T14:44:26.227Z,3.10
2022-11-27T14:46:55.035Z,2.90
2022-11-27T14:49:27.585Z,3.10
2022-11-27T14:51:58.749Z,2.47
2022-11-27T14:54:29.585Z,3.00
2022-11-27T14:56:58.523Z,2.87
2022-11-27T14:59:26.841Z,2.80
2022-11-27T15:02:03.519Z,2.80
2022-11-27T15:04:36.129Z,2.80
2022-11-27T15:07:07.438Z,2.40
2022-11-27T15:09:36.966Z,2.60
2022-11-27T15:12:15.129Z,2.73
2022-11-27T15:14:47.688Z,2.50
2022-11-27T15:17:18.601Z,2.50
2022-11-27T15:19:48.185Z,2.87
2022-11-27T15:22:18.656Z,2.40
2022-11-27T15:24:46.560Z,2.80
2022-11-27T15:27:20.508Z,2.97
2022-11-27T15:30:03.201Z,2.90
2022-11-27T15:32:46.814Z,2.27
2022-11-27T15:35:22.413Z,2.70
2022-11-27T15:37:51.304Z,2.80
2022-11-27T15:40:40.412Z,2.90
2022-11-27T15:43:12.363Z,2.00
2022-11-27T15:45:40.866Z,2.87
2022-11-27T15:48:16.134Z,2.50
2022-11-27T15:50:50.097Z,2.33
2022-11-27T15:53:19.816Z,2.60
2022-11-27T15:55:48.005Z,11.77
2022-11-27T15:58:16.757Z,5.43
2022-11-27T16:00:44.665Z,4.13
2022-11-27T16:03:13.304Z,3.57
2022-11-27T16:05:41.206Z,5.37
2022-11-27T16:08:11.639Z,4.57
2022-11-27T16:10:40.900Z,4.80
2022-11-27T16:13:08.794Z,4.87
2022-11-27T16:15:36.626Z,4.30
2022-11-27T16:18:04.805Z,5.13
2022-11-27T16:20:32.724Z,4.50
2022-11-27T16:23:00.571Z,4.17
2022-11-27T16:25:29.794Z,3.63
2022-11-27T16:28:02.552Z,3.63
2022-11-27T16:30:31.145Z,3.93
2022-11-27T16:32:58.969Z,4.57
2022-11-27T16:35:27.147Z,4.23
2022-11-27T16:37:54.946Z,3.13
2022-11-27T16:40:22.950Z,3.30
2022-11-27T16:42:52.080Z,3.77
2022-11-27T16:45:20.110Z,3.67
2022-11-27T16:47:48.171Z,3.83
2022-11-27T16:50:16.047Z,3.67
2022-11-27T16:52:44.681Z,3.57
2022-11-27T16:55:12.693Z,3.40
2022-11-27T16:57:40.507Z,3.07
2022-11-27T17:00:10.722Z,3.00
2022-11-27T17:02:38.609Z,3.67
2022-11-27T17:05:07.544Z,3.07
2022-11-27T17:07:35.714Z,3.30
2022-11-27T17:10:04.159Z,2.97
2022-11-27T17:12:34.222Z,3.00
2022-11-27T17:15:02.007Z,2.90
2022-11-27T17:17:34.293Z,2.87
2022-11-27T17:20:08.147Z,2.67
2022-11-27T17:22:36.109Z,2.60
2022-11-27T17:25:05.106Z,3.60
2022-11-27T17:27:34.074Z,2.73
2022-11-27T17:30:02.488Z,2.50
2022-11-27T17:32:31.688Z,2.50
2022-11-27T17:34:59.482Z,2.90
2022-11-27T17:37:27.372Z,2.70
2022-11-27T17:39:55.223Z,2.97
2022-11-27T17:42:23.177Z,2.93
2022-11-27T17:44:51.860Z,3.00
2022-11-27T17:47:19.661Z,2.70
2022-11-27T17:49:48.906Z,3.47
2022-11-27T17:52:16.769Z,2.80
2022-11-27T17:54:44.568Z,2.83
2022-11-27T17:57:12.405Z,3.53
2022-11-27T17:59:40.628Z,3.20
2022-11-27T18:02:08.708Z,3.30
2022-11-27T18:04:36.705Z,2.37
2022-11-27T18:07:05.916Z,2.20
2022-11-27T18:09:33.787Z,2.40
2022-11-27T18:12:01.591Z,2.60
2022-11-27T18:14:29.808Z,2.97
2022-11-27T18:16:59.890Z,2.83
2022-11-27T18:19:27.743Z,2.60
2022-11-27T18:21:55.565Z,3.23
2022-11-27T18:24:25.436Z,2.50
2022-11-27T18:29:45.427Z,1.87
2022-11-27T18:32:16.782Z,2.40
2022-11-27T18:34:45.755Z,2.37
2022-11-27T18:37:14.299Z,2.00
2022-11-27T18:39:45.276Z,2.30
2022-11-27T18:42:13.261Z,2.53
2022-11-27T18:44:44.739Z,2.20
2022-11-27T18:47:13.567Z,2.10
2022-11-27T18:49:42.102Z,2.37
2022-11-27T18:52:10.720Z,2.80
2022-11-27T18:54:38.568Z,1.93
2022-11-27T18:57:07.766Z,2.70
2022-11-27T18:59:35.857Z,2.30
2022-11-27T19:02:03.985Z,2.20
2022-11-27T19:04:31.973Z,3.33
2022-11-27T19:06:59.797Z,3.40
2022-11-27T19:09:27.638Z,2.97
2022-11-27T19:11:55.704Z,3.00
2022-11-27T19:14:24.862Z,3.23
2022-11-27T19:16:52.810Z,4.90
2022-11-27T19:22:10.715Z,16.13
2022-11-27T19:24:38.741Z,16.53
2022-11-27T19:27:06.634Z,18.60
2022-11-27T19:29:35.810Z,20.30
2022-11-27T19:32:03.694Z,19.80
2022-11-27T19:34:31.626Z,20.20
2022-11-27T19:36:59.466Z,19.87
2022-11-27T19:39:28.557Z,19.13
2022-11-27T19:41:57.724Z,18.93
2022-11-27T19:44:25.653Z,19.10
2022-11-27T19:46:55.029Z,20.23
2022-11-27T19:49:22.886Z,19.03
2022-11-27T19:51:50.700Z,18.40
2022-11-27T19:54:19.855Z,17.90
2022-11-27T19:56:48.028Z,17.17
2022-11-27T19:59:15.978Z,17.27
2022-11-27T20:01:44.011Z,17.47
2022-11-27T20:04:15.189Z,17.20
2022-11-27T20:06:43.093Z,17.57
2022-11-27T20:09:13.993Z,15.93
2022-11-27T20:11:41.849Z,16.50
2022-11-27T20:14:09.688Z,16.50
2022-11-27T20:16:37.887Z,15.97
2022-11-27T20:19:07.262Z,15.13
2022-11-27T20:21:37.442Z,16.17
2022-11-27T20:24:05.757Z,14.73
2022-11-27T20:26:37.172Z,15.27
2022-11-27T20:29:06.564Z,14.67
2022-11-27T20:31:37.500Z,14.70
2022-11-27T20:34:06.678Z,14.10
2022-11-27T20:36:39.097Z,14.63
2022-11-27T20:39:07.376Z,13.47
2022-11-27T20:41:35.204Z,13.57
2022-11-27T20:44:04.656Z,12.87
2022-11-27T20:46:33.132Z,12.73
2022-11-27T20:49:01.098Z,12.90
2022-11-27T20:51:33.612Z,12.13
2022-11-27T20:54:03.573Z,12.47
2022-11-27T20:56:32.326Z,12.70
2022-11-27T20:59:00.695Z,12.20
2022-11-27T21:01:31.065Z,12.37
2022-11-27T21:04:00.928Z,11.97
2022-11-27T21:06:30.902Z,11.60
2022-11-27T21:09:02.448Z,11.20
2022-11-27T21:11:33.814Z,11.83
2022-11-27T21:14:05.858Z,11.90
2022-11-27T21:16:35.882Z,10.43
2022-11-27T21:19:05.658Z,11.03
2022-11-27T21:21:33.983Z,10.40
2022-11-27T21:24:03.585Z,11.23
2022-11-27T21:26:31.598Z,10.33
2022-11-27T21:28:59.466Z,10.70
2022-11-27T21:31:35.940Z,9.60
2022-11-27T21:34:07.206Z,9.23
2022-11-27T21:36:36.880Z,9.03
2022-11-27T21:39:09.145Z,8.90
2022-11-27T21:41:37.375Z,8.90
2022-11-27T21:44:06.294Z,8.20
2022-11-27T21:46:34.867Z,8.67
2022-11-27T21:49:03.110Z,8.47
2022-11-27T21:54:14.746Z,8.13
2022-11-27T21:56:42.589Z,8.27
2022-11-27T21:59:13.664Z,7.83
2022-11-27T22:01:41.623Z,7.13
2022-11-27T22:04:09.436Z,7.90
2022-11-27T22:06:39.120Z,7.33
2022-11-27T22:09:13.403Z,7.73
2022-11-27T22:11:45.645Z,7.23
2022-11-27T22:14:14.750Z,7.17
2022-11-27T22:16:45.981Z,7.43
2022-11-27T22:19:15.174Z,7.27
2022-11-27T22:21:43.142Z,7.37
2022-11-27T22:24:16.789Z,6.80
2022-11-27T22:26:48.646Z,6.67
2022-11-27T22:29:16.616Z,6.83
2022-11-27T22:31:44.450Z,6.27
2022-11-27T22:34:12.330Z,7.03
2022-11-27T22:36:40.155Z,5.80
2022-11-27T22:39:09.537Z,6.33
2022-11-27T22:41:39.273Z,6.30
2022-11-27T22:44:09.517Z,6.53
2022-11-27T22:46:40.778Z,5.90
2022-11-27T22:49:10.679Z,6.20
2022-11-27T22:51:38.606Z,6.30
2022-11-27T22:54:09.764Z,6.20
2022-11-27T22:56:37.832Z,5.93
2022-11-27T23:01:55.789Z,5.23
2022-11-27T23:04:23.612Z,5.93
2022-11-27T23:06:51.434Z,5.27
2022-11-27T23:09:19.325Z,5.40
2022-11-27T23:11:47.653Z,5.37
2022-11-27T23:14:17.128Z,5.73
2022-11-27T23:16:45.208Z,5.47
2022-11-27T23:19:13.369Z,5.07
2022-11-27T23:21:41.651Z,5.70
2022-11-27T23:24:12.670Z,5.20
2022-11-27T23:26:40.636Z,4.97
2022-11-27T23:29:08.565Z,4.73
2022-11-27T23:31:37.776Z,4.77
2022-11-27T23:34:08.252Z,4.57
2022-11-27T23:36:37.200Z,4.57
2022-11-27T23:39:07.541Z,4.47
2022-11-27T23:41:35.716Z,4.50
2022-11-27T23:44:03.604Z,4.20
2022-11-27T23:46:31.737Z,4.80
2022-11-27T23:49:01.641Z,4.40
2022-11-27T23:51:31.190Z,4.40
2022-11-27T23:53:59.545Z,4.40
2022-11-27T23:56:29.349Z,4.53
2022-11-27T23:58:58.041Z,4.30
